Аэропорт: Угольный. Анадырь

ICAO: UHMA

METAR:
2019-09-16 01:00:00
UHMA 160100Z 34004MPS 300V020 9999 SCT034 11/03 Q1014 R01/60D NOSIG RMK TDZ R01/34004G06MPS END R01/32004G05MPS QFE756/1009
METAR:
2019-09-15 22:48:00
TAF UHMA 152248Z 1600/1624 36003G08MPS 9999 SCT020 TEMPO 1600/1609 06005MPS 5000 BR SCT005 BKN015CB BECMG 1609/1611 08006MPS TEMPO 1611/1624 5000 BR SCT005 BKN015